Time;durP1;ratioP1;P1;durP2;ratioP2;P2;SDS_P1;SDS_P2;PMS_P1;PMS_P2;Temp;Humidity;BMP_temperature;BMP_pressure;BME280_temperature;BME280_humidity;BME280_pressure;Samples;Min_cycle;Max_cycle;Signal;HPM_P1;HPM_P2
2024/01/11 00:02:04;;;;;;;31.40;17.27;;;;;;;-1.53;52.46;101184.25;7793237;32;37839;-79
2024/01/11 00:06:20;;;;;;;32.70;18.10;;;;;;;-1.76;52.76;101191.09;7793203;32;37163;-78
2024/01/11 00:10:37;;;;;;;32.65;17.70;;;;;;;-1.67;52.44;101186.66;7793192;32;40072;-78
2024/01/11 00:14:53;;;;;;;28.60;16.90;;;;;;;-1.65;52.18;101185.50;7776275;32;39887;-78
2024/01/11 00:19:09;;;;;;;33.45;17.17;;;;;;;-1.81;52.63;101180.03;7765830;32;38468;-78
2024/01/11 00:23:26;;;;;;;31.08;15.85;;;;;;;-1.73;52.31;101182.78;7788546;32;37864;-78
2024/01/11 00:27:42;;;;;;;30.75;16.77;;;;;;;-1.94;53.63;101173.28;7792931;32;39223;-78
2024/01/11 00:31:58;;;;;;;29.27;15.45;;;;;;;-1.94;53.45;101167.94;7792892;32;40035;-78
2024/01/11 00:36:20;;;;;;;29.98;15.73;;;;;;;-1.70;53.04;101169.09;7792754;32;38807;-78
2024/01/11 00:40:36;;;;;;;30.27;16.50;;;;;;;-1.80;53.27;101173.72;7791007;32;36923;-78
2024/01/11 00:44:52;;;;;;;27.92;15.43;;;;;;;-1.79;52.68;101167.38;7765706;32;39260;-78
2024/01/11 00:49:08;;;;;;;28.12;16.85;;;;;;;-1.98;53.12;101165.75;7765533;32;40115;-78
2024/01/11 00:53:30;;;;;;;31.50;16.48;;;;;;;-2.20;53.47;101154.53;7765418;32;38658;-79
2024/01/11 00:57:46;;;;;;;30.60;16.92;;;;;;;-2.02;52.63;101145.66;7765532;32;37170;-78
2024/01/11 01:02:03;;;;;;;28.20;15.10;;;;;;;-2.14;52.70;101155.75;7765438;32;40067;-78
2024/01/11 01:06:19;;;;;;;25.42;14.43;;;;;;;-2.13;53.02;101160.09;7765364;32;40654;-78
2024/01/11 01:10:35;;;;;;;33.97;17.45;;;;;;;-2.06;52.88;101153.16;7779303;32;37698;-78
2024/01/11 01:14:52;;;;;;;35.47;17.27;;;;;;;-2.07;52.88;101138.09;7778550;32;37309;-78
2024/01/11 01:19:08;;;;;;;31.58;17.73;;;;;;;-2.01;52.67;101137.47;7792392;32;39971;-78
2024/01/11 01:23:24;;;;;;;32.47;17.33;;;;;;;-1.92;52.54;101144.53;7792173;32;39933;-78
2024/01/11 01:27:41;;;;;;;30.60;16.98;;;;;;;-1.90;52.69;101131.03;7792175;32;37910;-78
2024/01/11 01:31:57;;;;;;;33.15;17.17;;;;;;;-1.85;52.86;101130.56;7792374;32;36766;-78
2024/01/11 01:36:13;;;;;;;33.17;17.08;;;;;;;-1.91;53.18;101127.53;7792223;32;39070;-78
2024/01/11 01:40:31;;;;;;;27.25;16.12;;;;;;;-2.10;53.70;101119.72;7790379;32;40827;-78
2024/01/11 01:44:48;;;;;;;30.98;16.77;;;;;;;-2.28;54.05;101115.25;7792151;32;38135;-78
2024/01/11 01:49:04;;;;;;;32.25;17.60;;;;;;;-2.04;53.57;101107.56;7791902;32;37826;-78
2024/01/11 01:53:22;;;;;;;27.70;16.05;;;;;;;-1.90;52.85;101105.16;7791339;32;39220;-78
2024/01/11 01:57:40;;;;;;;31.52;16.75;;;;;;;-1.94;52.94;101106.44;7777508;32;39893;-78
2024/01/11 02:01:56;;;;;;;33.80;16.60;;;;;;;-2.15;53.50;101097.97;7791983;32;38500;-78
2024/01/11 02:06:13;;;;;;;30.73;18.15;;;;;;;-2.06;53.09;101086.34;7780037;32;37230;-78
2024/01/11 02:10:32;;;;;;;32.42;17.77;;;;;;;-2.29;53.70;101094.87;7750748;32;40123;-78
2024/01/11 02:14:49;;;;;;;34.05;16.75;;;;;;;-2.17;53.42;101091.97;7764504;32;40775;-79
2024/01/11 02:19:12;;;;;;;32.03;18.00;;;;;;;-2.29;53.68;101092.19;7764081;32;38774;-79
2024/01/11 02:23:30;;;;;;;29.05;18.27;;;;;;;-2.24;53.48;101093.56;7771446;32;37947;-78
2024/01/11 02:27:47;;;;;;;34.50;18.55;;;;;;;-2.31;53.83;101085.31;7789676;32;39886;-79
2024/01/11 02:32:06;;;;;;;31.45;17.33;;;;;;;-2.34;53.97;101070.44;7789704;32;39916;-79
2024/01/11 02:36:23;;;;;;;33.65;17.65;;;;;;;-2.27;53.61;101058.13;7790643;32;37063;-79
2024/01/11 02:40:40;;;;;;;33.58;17.85;;;;;;;-2.32;53.93;101047.09;7791000;32;37759;-78
2024/01/11 02:44:56;;;;;;;33.60;17.58;;;;;;;-2.27;54.39;101047.47;7777296;32;39148;-78
2024/01/11 02:49:12;;;;;;;31.75;17.30;;;;;;;-2.12;53.72;101041.53;7790588;32;40100;-78
2024/01/11 02:53:33;;;;;;;31.42;18.25;;;;;;;-2.23;53.77;101031.94;7790583;32;38898;-79
2024/01/11 02:57:50;;;;;;;29.25;17.37;;;;;;;-2.35;54.18;101025.19;7790561;32;37146;-79
2024/01/11 03:02:06;;;;;;;30.30;16.55;;;;;;;-2.22;53.83;101016.78;7764990;32;39508;-79
2024/01/11 03:06:23;;;;;;;38.65;19.37;;;;;;;-2.35;53.70;101018.00;7764713;32;40913;-78
2024/01/11 03:10:39;;;;;;;32.40;17.80;;;;;;;-2.57;54.89;101007.84;7766864;32;38701;-78
2024/01/11 03:14:55;;;;;;;35.33;18.45;;;;;;;-2.62;55.20;101012.81;7766769;32;36917;-78
2024/01/11 03:19:11;;;;;;;36.10;18.48;;;;;;;-2.55;54.56;101000.50;7791695;32;39260;-79
2024/01/11 03:23:28;;;;;;;38.38;19.83;;;;;;;-2.58;54.43;101000.84;7779692;32;40888;-79
2024/01/11 03:27:44;;;;;;;39.90;20.33;;;;;;;-2.58;54.39;100996.34;7769813;32;38097;-79
2024/01/11 03:32:01;;;;;;;39.58;21.65;;;;;;;-2.95;55.64;101004.56;7766519;32;37099;-79
2024/01/11 03:36:17;;;;;;;39.58;20.52;;;;;;;-2.95;55.57;101000.06;7766494;32;38957;-79
2024/01/11 03:40:33;;;;;;;36.90;20.23;;;;;;;-2.73;54.68;100993.37;7766422;32;40633;-78
2024/01/11 03:44:49;;;;;;;38.80;20.83;;;;;;;-2.93;54.88;100991.88;7766343;32;38613;-79
2024/01/11 03:49:07;;;;;;;34.92;19.05;;;;;;;-2.98;55.12;100986.16;7766183;32;37136;-79
2024/01/11 03:53:24;;;;;;;44.45;22.92;;;;;;;-3.04;55.00;100985.78;7766278;32;39075;-79
2024/01/11 03:57:40;;;;;;;35.50;19.95;;;;;;;-3.00;55.01;100982.81;7787755;32;39915;-79
2024/01/11 04:01:57;;;;;;;32.95;20.35;;;;;;;-3.13;55.09;100988.56;7792987;32;38900;-79
2024/01/11 04:06:24;;;;;;;39.33;22.08;;;;;;;-3.10;54.93;100986.44;7793212;32;36938;-79
2024/01/11 04:10:40;;;;;;;40.60;20.00;;;;;;;-3.10;54.67;100985.59;7793279;32;40019;-79
2024/01/11 04:14:56;;;;;;;43.30;20.75;;;;;;;-3.02;54.46;100986.50;7793094;32;40787;-79
2024/01/11 04:19:13;;;;;;;35.05;20.55;;;;;;;-3.35;56.36;100989.84;7765390;32;37963;-79
2024/01/11 04:23:29;;;;;;;41.67;20.83;;;;;;;-3.04;55.18;100985.78;7765306;32;37022;-79
2024/01/11 04:27:45;;;;;;;36.70;19.87;;;;;;;-3.26;56.29;100983.59;7765892;32;39945;-78
2024/01/11 04:32:02;;;;;;;40.35;21.52;;;;;;;-3.37;55.82;100989.16;7776741;32;39905;-79
2024/01/11 04:36:19;;;;;;;34.60;19.85;;;;;;;-3.31;56.08;100977.88;7765586;32;38853;-79
2024/01/11 04:40:35;;;;;;;43.25;20.95;;;;;;;-3.03;54.92;100990.16;7765875;32;37086;-80
2024/01/11 04:44:51;;;;;;;40.20;21.73;;;;;;;-2.89;54.30;100977.25;7765813;32;38991;-80
2024/01/11 04:49:07;;;;;;;65.50;26.37;;;;;;;-2.96;54.48;100966.34;7765415;32;39925;-80
2024/01/11 04:53:24;;;;;;;46.28;24.33;;;;;;;-3.18;54.58;100975.66;7784960;32;37964;-79
2024/01/11 04:57:40;;;;;;;38.95;19.70;;;;;;;-3.23;54.70;100978.78;7792596;32;37990;-80
2024/01/11 05:01:56;;;;;;;35.55;20.65;;;;;;;-3.18;54.57;100970.34;7778575;32;39322;-80
2024/01/11 05:06:20;;;;;;;38.17;18.70;;;;;;;-3.05;57.64;100973.47;7792220;32;39945;-79
2024/01/11 05:10:36;;;;;;;44.03;20.85;;;;;;;-2.89;55.63;100967.41;7792575;32;38707;-79
2024/01/11 05:14:53;;;;;;;34.03;20.15;;;;;;;-3.32;56.09;100968.22;7773371;32;37134;-79
2024/01/11 05:19:09;;;;;;;42.38;19.83;;;;;;;-3.14;54.94;100962.87;7792472;32;39212;-79
2024/01/11 05:23:25;;;;;;;35.20;20.27;;;;;;;-3.18;54.64;100974.84;7792136;32;39766;-78
2024/01/11 05:27:41;;;;;;;38.58;20.70;;;;;;;-3.36;55.05;100982.81;7787028;32;38673;-78
2024/01/11 05:31:58;;;;;;;32.75;19.62;;;;;;;-3.53;55.18;100979.19;7775585;32;37096;-81
2024/01/11 05:36:14;;;;;;;31.02;17.92;;;;;;;-3.38;54.76;100964.34;7766140;32;40219;-80
2024/01/11 05:40:30;;;;;;;38.28;20.05;;;;;;;-3.08;54.13;100973.75;7791942;32;40880;-81
2024/01/11 05:44:46;;;;;;;43.20;19.85;;;;;;;-3.27;54.32;100976.59;7791924;32;38016;-80
2024/01/11 05:49:03;;;;;;;34.95;19.37;;;;;;;-3.34;54.34;100978.19;7775789;32;37312;-81
2024/01/11 05:53:20;;;;;;;34.97;18.45;;;;;;;-3.32;54.59;100965.53;7790492;32;39889;-79
2024/01/11 05:57:37;;;;;;;38.78;20.45;;;;;;;-3.19;54.25;100965.16;7791894;32;40037;-81
2024/01/11 06:01:53;;;;;;;35.90;20.17;;;;;;;-3.18;54.21;100959.66;7791669;32;37774;-79
2024/01/11 06:06:09;;;;;;;41.10;20.35;;;;;;;-3.32;54.57;100965.53;7791688;32;37785;-80
2024/01/11 06:10:26;;;;;;;33.97;21.30;;;;;;;-3.27;54.75;100964.09;7791448;32;39177;-80
2024/01/11 06:14:42;;;;;;;41.85;24.15;;;;;;;-3.40;54.97;100959.16;7778408;32;40011;-79
2024/01/11 06:18:58;;;;;;;41.70;22.10;;;;;;;-3.58;55.41;100961.78;7764222;32;38091;-80
2024/01/11 06:23:16;;;;;;;43.00;21.37;;;;;;;-3.45;55.01;100953.44;7763999;32;37101;-80
2024/01/11 06:27:33;;;;;;;48.13;23.98;;;;;;;-3.43;55.11;100966.63;7782173;32;38147;-79
2024/01/11 06:31:49;;;;;;;39.20;22.00;;;;;;;-3.42;55.09;100950.44;7791132;32;39780;-80
2024/01/11 06:36:07;;;;;;;43.55;21.60;;;;;;;-3.46;56.04;100949.06;7790905;32;37811;-80
2024/01/11 06:40:24;;;;;;;51.00;22.50;;;;;;;-3.51;55.94;100954.03;7788356;32;37019;-79
2024/01/11 06:44:40;;;;;;;43.20;23.92;;;;;;;-3.90;56.61;100948.09;7794234;32;40020;-79
2024/01/11 06:48:56;;;;;;;48.15;24.50;;;;;;;-3.44;55.78;100955.09;7793995;32;40868;-78
2024/01/11 06:53:13;;;;;;;45.30;22.67;;;;;;;-3.64;56.28;100958.87;7794016;32;38768;-78
2024/01/11 06:57:29;;;;;;;42.78;22.27;;;;;;;-3.65;56.60;100963.38;7794158;32;36957;-78
2024/01/11 07:01:46;;;;;;;45.78;22.45;;;;;;;-3.43;56.03;100956.78;7794025;32;39890;-78
2024/01/11 07:06:03;;;;;;;44.10;22.00;;;;;;;-3.57;56.46;100957.28;7792231;32;40757;-78
2024/01/11 07:10:20;;;;;;;42.00;23.05;;;;;;;-3.47;56.79;100958.06;7793812;32;38005;-78
2024/01/11 07:14:36;;;;;;;51.75;25.12;;;;;;;-3.38;56.42;100956.34;7793878;32;37971;-78
2024/01/11 07:18:52;;;;;;;51.53;24.15;;;;;;;-3.35;56.16;100956.00;7793914;32;39211;-78
2024/01/11 07:23:09;;;;;;;45.28;25.17;;;;;;;-3.24;55.77;100947.78;7793660;32;39928;-78
2024/01/11 07:27:25;;;;;;;55.12;25.80;;;;;;;-3.11;55.75;100958.06;7793606;32;37786;-79
2024/01/11 07:31:41;;;;;;;49.75;28.00;;;;;;;-2.78;55.12;100944.97;7793685;32;37871;-79
2024/01/11 07:35:58;;;;;;;44.88;26.37;;;;;;;-2.95;55.84;100949.37;7772967;32;39270;-78
2024/01/11 07:40:16;;;;;;;47.30;24.23;;;;;;;-2.55;55.17;100941.75;7766350;32;39899;-79
2024/01/11 07:44:33;;;;;;;51.92;26.87;;;;;;;-2.49;55.27;100939.31;7766270;32;38852;-80
2024/01/11 07:48:49;;;;;;;48.22;24.83;;;;;;;-2.18;54.98;100925.44;7766204;32;37187;-79
2024/01/11 07:53:05;;;;;;;53.53;27.40;;;;;;;-2.06;54.87;100914.47;7765786;32;39229;-79
2024/01/11 07:57:22;;;;;;;57.97;27.48;;;;;;;-2.36;55.84;100914.84;7766036;32;40750;-79
2024/01/11 08:01:38;;;;;;;49.42;27.50;;;;;;;-2.07;55.53;100908.28;7769352;32;38735;-78
2024/01/11 08:05:55;;;;;;;49.13;26.45;;;;;;;-1.71;54.84;100905.38;7772064;32;37094;-78
2024/01/11 08:10:11;;;;;;;57.88;26.90;;;;;;;-1.57;54.77;100893.19;7780840;32;39859;-77
2024/01/11 08:14:27;;;;;;;44.67;25.25;;;;;;;-1.49;55.39;100900.41;7765708;32;40766;-79
2024/01/11 08:18:44;;;;;;;55.60;31.30;;;;;;;-1.12;58.27;100889.22;7765915;32;38127;-78
2024/01/11 08:23:01;;;;;;;47.47;27.58;;;;;;;-1.01;55.53;100880.00;7765700;32;37816;-78
2024/01/11 08:27:17;;;;;;;49.03;28.00;;;;;;;-0.63;54.69;100890.97;7782892;32;39093;-79
2024/01/11 08:31:34;;;;;;;59.08;28.90;;;;;;;-0.40;54.40;100897.28;7792971;32;40799;-79
2024/01/11 08:35:54;;;;;;;60.75;29.33;;;;;;;-0.26;53.84;100884.13;7792818;32;38035;-79
2024/01/11 08:40:10;;;;;;;55.28;29.00;;;;;;;-0.51;54.39;100894.94;7785770;32;37187;-78
2024/01/11 08:44:27;;;;;;;51.17;28.70;;;;;;;-0.15;54.56;100889.13;7765622;32;39227;-77
2024/01/11 08:48:45;;;;;;;55.90;29.17;;;;;;;0.10;53.58;100887.13;7765446;32;41046;-78
2024/01/11 08:53:02;;;;;;;53.15;27.52;;;;;;;0.54;53.36;100886.53;7770615;32;38740;-78
2024/01/11 08:57:18;;;;;;;57.40;27.30;;;;;;;0.28;53.74;100888.72;7766278;32;37753;-78
2024/01/11 09:01:35;;;;;;;45.65;25.92;;;;;;;0.54;52.93;100885.69;7765363;32;40065;-78
2024/01/11 09:05:52;;;;;;;48.13;25.37;;;;;;;0.66;52.28;100870.03;7764303;32;40159;-78
2024/01/11 09:10:09;;;;;;;50.33;24.35;;;;;;;0.37;52.94;100861.66;7765232;32;38061;-78
2024/01/11 09:14:25;;;;;;;47.45;24.85;;;;;;;0.07;54.40;100859.84;7785065;32;38519;-78
2024/01/11 09:18:42;;;;;;;43.53;22.20;;;;;;;0.01;55.29;100855.19;7789468;32;39178;-77
2024/01/11 09:23:03;;;;;;;22.45;14.35;;;;;;;-0.45;54.49;100851.41;7782433;32;40239;-76
2024/01/11 09:27:20;;;;;;;38.00;20.75;;;;;;;-0.60;52.18;100839.75;7792250;32;38005;-78
2024/01/11 09:31:36;;;;;;;35.50;19.30;;;;;;;-0.29;53.97;100833.59;7792107;32;37164;-78
2024/01/11 09:35:52;;;;;;;36.55;18.37;;;;;;;-0.17;52.51;100816.09;7790888;32;39230;-78
2024/01/11 09:40:10;;;;;;;27.73;15.93;;;;;;;-0.13;51.61;100808.53;7772175;32;40019;-78
2024/01/11 09:44:27;;;;;;;30.95;16.15;;;;;;;0.06;52.58;100793.84;7771949;32;37006;-78
2024/01/11 09:48:45;;;;;;;31.33;17.00;;;;;;;0.69;51.29;100775.69;7781647;32;37697;-79
2024/01/11 09:53:05;;;;;;;28.25;16.10;;;;;;;-0.10;49.84;100773.34;7770708;32;38418;-79
2024/01/11 09:57:28;;;;;;;36.58;15.98;;;;;;;0.53;49.36;100760.59;7765952;32;40700;-78
2024/01/11 10:01:45;;;;;;;25.08;16.02;;;;;;;0.73;47.59;100747.47;7772220;32;38751;-77
2024/01/11 10:06:02;;;;;;;22.95;12.20;;;;;;;0.77;48.13;100756.81;7774225;32;37080;-78
2024/01/11 10:10:18;;;;;;;27.60;15.90;;;;;;;0.94;47.18;100749.44;7783656;32;40052;-78
2024/01/11 10:14:34;;;;;;;33.00;15.95;;;;;;;0.67;47.84;100754.44;7770320;32;40873;-78
2024/01/11 10:18:55;;;;;;;23.80;13.32;;;;;;;0.62;47.35;100754.16;7764326;32;38566;-78
2024/01/11 10:23:11;;;;;;;35.17;17.42;;;;;;;0.69;48.19;100747.03;7758866;32;167117;-77
2024/01/11 10:27:29;;;;;;;31.95;17.30;;;;;;;0.75;47.77;100737.38;7789227;32;38970;-78
2024/01/11 10:31:45;;;;;;;33.45;17.35;;;;;;;0.45;48.95;100740.03;7791141;32;40550;-78
2024/01/11 10:36:02;;;;;;;32.38;17.58;;;;;;;0.55;49.72;100715.59;7777011;32;37917;-78
2024/01/11 10:40:23;;;;;;;26.25;15.15;;;;;;;0.51;49.42;100730.41;7791145;32;37833;-78
2024/01/11 10:44:44;;;;;;;31.70;17.75;;;;;;;0.78;48.26;100722.75;7759246;32;39306;-78
2024/01/11 10:49:04;;;;;;;27.15;15.15;;;;;;;0.91;49.51;100706.84;7781399;32;39920;-79
2024/01/11 10:53:45;;;;;;;35.72;18.75;;;;;;;0.70;49.88;100716.47;7789351;32;38802;-79
2024/01/11 10:58:03;;;;;;;35.78;17.05;;;;;;;0.54;50.24;100716.66;7788512;32;37083;-79
2024/01/11 11:02:20;;;;;;;45.33;24.08;;;;;;;0.67;50.59;100699.91;7776974;32;39837;-78
2024/01/11 11:06:37;;;;;;;34.80;19.73;;;;;;;0.61;50.86;100684.53;7774238;32;39558;-79
2024/01/11 11:10:58;;;;;;;25.20;13.57;;;;;;;0.93;51.15;100680.63;7773480;32;37950;-79
2024/01/11 11:15:15;;;;;;;32.20;17.35;;;;;;;0.77;49.91;100673.59;7771676;32;37139;-80
2024/01/11 11:19:31;;;;;;;36.63;17.45;;;;;;;1.81;48.84;100684.13;7786070;32;38993;-80
2024/01/11 11:23:49;;;;;;;39.22;20.52;;;;;;;1.99;47.77;100678.28;7765888;32;40796;-79
2024/01/11 11:28:05;;;;;;;30.17;16.48;;;;;;;1.64;48.37;100663.91;7765693;32;37712;-80
2024/01/11 11:32:36;;;;;;;23.50;14.50;;;;;;;1.38;48.60;100654.53;7775072;32;37098;-80
2024/01/11 11:36:55;;;;;;;30.50;16.05;;;;;;;1.71;48.45;100645.97;7786165;32;40223;-79
2024/01/11 11:41:11;;;;;;;29.70;14.18;;;;;;;2.22;46.94;100643.06;7785627;32;39834;-79
2024/01/11 11:45:28;;;;;;;23.10;14.15;;;;;;;2.35;46.33;100622.69;7756190;32;37961;-79
2024/01/11 11:50:07;;;;;;;25.58;13.20;;;;;;;1.96;46.88;100629.41;7792998;32;37965;-81
2024/01/11 11:54:24;;;;;;;15.98;9.82;;;;;;;2.02;45.92;100628.66;7774886;32;39374;-81
2024/01/11 11:58:41;;;;;;;22.40;11.85;;;;;;;1.73;45.55;100614.34;7757199;32;39948;-81
2024/01/11 12:02:58;;;;;;;25.00;13.20;;;;;;;1.59;45.40;100601.81;7774092;32;37546;-81
2024/01/11 12:07:15;;;;;;;22.02;12.98;;;;;;;2.14;45.10;100610.94;7787159;32;37830;-82
2024/01/11 12:11:32;;;;;;;20.75;11.98;;;;;;;2.51;43.85;100608.88;7766029;32;39870;-82
2024/01/11 12:15:49;;;;;;;27.25;13.57;;;;;;;2.35;44.05;100595.75;7752679;32;39417;-82
2024/01/11 12:20:06;;;;;;;20.52;11.80;;;;;;;2.32;44.99;100596.97;7785358;32;37911;-80
2024/01/11 12:24:23;;;;;;;26.42;14.15;;;;;;;2.94;44.48;100597.91;7792839;32;37091;-81
2024/01/11 12:28:41;;;;;;;26.05;14.02;;;;;;;2.87;43.28;100598.91;7792342;32;39734;-81
2024/01/11 12:32:58;;;;;;;28.12;13.98;;;;;;;2.85;43.00;100590.22;7792998;32;38899;-82
2024/01/11 12:37:16;;;;;;;24.75;12.93;;;;;;;3.00;43.28;100572.00;7792667;32;37948;-81
2024/01/11 12:41:32;;;;;;;16.27;9.52;;;;;;;2.57;43.68;100556.09;7791132;32;37229;-80
2024/01/11 12:45:49;;;;;;;22.40;12.07;;;;;;;2.61;43.23;100554.69;7792968;32;39200;-81
2024/01/11 12:50:07;;;;;;;26.17;14.50;;;;;;;2.49;43.36;100545.53;7792862;32;40835;-83
2024/01/11 12:54:24;;;;;;;22.17;11.77;;;;;;;1.49;45.50;100532.25;7792866;32;37445;-81
2024/01/11 12:58:40;;;;;;;21.27;12.02;;;;;;;3.00;42.30;100518.97;7792721;32;37842;-81
2024/01/11 13:02:56;;;;;;;23.85;12.57;;;;;;;3.14;42.11;100509.06;7792577;32;39455;-81
2024/01/11 13:07:15;;;;;;;24.27;12.82;;;;;;;3.17;42.57;100507.78;7792639;32;39916;-81
2024/01/11 13:11:32;;;;;;;24.05;12.80;;;;;;;2.62;42.04;100502.50;7792430;32;38793;-81
2024/01/11 13:15:50;;;;;;;18.52;10.57;;;;;;;2.62;42.36;100499.78;7792446;32;37106;-81
2024/01/11 13:20:07;;;;;;;16.80;8.05;;;;;;;1.91;43.94;100490.16;7792389;32;39939;-81
2024/01/11 13:24:23;;;;;;;17.90;9.35;;;;;;;1.60;44.05;100490.56;7792229;32;39924;-82
2024/01/11 13:28:40;;;;;;;21.42;11.80;;;;;;;1.39;45.37;100494.97;7792298;32;37557;-81
2024/01/11 13:32:57;;;;;;;44.47;19.10;;;;;;;1.91;43.82;100482.09;7791896;32;37046;-81
2024/01/11 13:37:13;;;;;;;23.12;12.02;;;;;;;1.37;44.17;100480.06;7792281;32;39965;-81
2024/01/11 13:41:30;;;;;;;19.98;12.32;;;;;;;1.36;44.14;100468.47;7790973;32;40486;-81
2024/01/11 13:45:46;;;;;;;23.77;12.65;;;;;;;1.07;44.68;100459.56;7791980;32;38000;-82
2024/01/11 13:50:03;;;;;;;21.58;11.98;;;;;;;1.54;44.70;100448.38;7791159;32;37893;-81
2024/01/11 13:54:21;;;;;;;24.12;12.70;;;;;;;1.31;44.66;100441.38;7791995;32;39716;-80
2024/01/11 13:58:37;;;;;;;22.10;12.82;;;;;;;1.21;44.53;100430.97;7791845;32;38924;-80
2024/01/11 14:02:54;;;;;;;19.30;10.98;;;;;;;0.88;44.66;100431.53;7791801;32;38166;-81
2024/01/11 14:07:10;;;;;;;22.90;12.05;;;;;;;1.42;44.48;100419.34;7791848;32;38037;-81
2024/01/11 14:11:26;;;;;;;23.38;13.10;;;;;;;1.31;44.60;100414.50;7791652;32;39262;-82
2024/01/11 14:15:43;;;;;;;28.95;12.75;;;;;;;1.05;46.13;100418.66;7791518;32;39911;-81
2024/01/11 14:20:00;;;;;;;24.63;14.18;;;;;;;0.82;47.09;100416.19;7791459;32;37964;-81
2024/01/11 14:24:17;;;;;;;25.55;15.07;;;;;;;0.94;47.10;100403.88;7791408;32;36219;-80
2024/01/11 14:28:44;;;;;;;29.40;12.20;;;;;;;1.12;47.54;100405.25;7787302;32;39292;-81
2024/01/11 14:33:00;;;;;;;22.85;13.77;;;;;;;0.92;48.57;100414.00;7780748;32;39912;-81
2024/01/11 14:37:17;;;;;;;29.48;14.13;;;;;;;0.82;49.11;100415.34;7789363;32;38750;-81
2024/01/11 14:41:33;;;;;;;25.88;14.77;;;;;;;0.70;49.94;100399.75;7790332;32;36971;-78
2024/01/11 14:45:50;;;;;;;26.87;14.15;;;;;;;0.88;50.25;100403.81;7790594;32;39222;-78
2024/01/11 14:50:11;;;;;;;29.23;16.10;;;;;;;1.33;48.86;100395.50;7770381;32;40587;-77
2024/01/11 14:54:27;;;;;;;32.10;15.00;;;;;;;1.85;47.92;100396.84;7763193;32;38662;-78
2024/01/11 14:58:43;;;;;;;27.40;16.48;;;;;;;1.93;47.27;100395.84;7763153;32;37009;-78
2024/01/11 15:03:00;;;;;;;34.45;17.37;;;;;;;0.93;49.84;100409.44;7766091;32;40100;-78
2024/01/11 15:07:17;;;;;;;31.67;17.62;;;;;;;0.71;52.22;100401.44;7766631;32;40833;-78
2024/01/11 15:11:35;;;;;;;35.28;17.92;;;;;;;0.32;53.97;100397.31;7777186;32;37765;-77
2024/01/11 15:15:52;;;;;;;26.48;14.87;;;;;;;0.08;54.99;100400.34;7793722;32;37913;-77
2024/01/11 15:20:09;;;;;;;35.75;17.42;;;;;;;0.26;54.36;100395.41;7793602;32;39331;-77
2024/01/11 15:24:28;;;;;;;33.80;17.75;;;;;;;-0.10;55.27;100385.50;7793417;32;40836;-76
2024/01/11 15:28:44;;;;;;;36.30;18.20;;;;;;;-0.02;55.47;100406.84;7793789;32;39630;-76
2024/01/11 15:33:00;;;;;;;41.40;19.87;;;;;;;0.20;54.59;100414.09;7793452;32;37948;-77
2024/01/11 15:37:18;;;;;;;37.60;18.75;;;;;;;0.20;55.26;100412.22;7793355;32;39232;-77
2024/01/11 15:41:35;;;;;;;34.45;18.00;;;;;;;0.11;55.73;100421.41;7793263;32;40844;-77
2024/01/11 15:45:51;;;;;;;32.83;17.25;;;;;;;0.06;56.07;100429.19;7793361;32;38628;-77
2024/01/11 15:50:10;;;;;;;40.30;20.62;;;;;;;0.40;54.95;100425.03;7793287;32;36853;-78
2024/01/11 15:54:26;;;;;;;36.72;18.55;;;;;;;-0.07;56.24;100425.31;7793355;32;40026;-76
2024/01/11 15:58:43;;;;;;;30.85;18.12;;;;;;;0.02;56.69;100419.84;7793161;32;39878;-76
2024/01/11 16:02:59;;;;;;;35.28;19.12;;;;;;;-0.27;57.26;100425.06;7793184;32;37635;-77
2024/01/11 16:07:16;;;;;;;33.88;19.30;;;;;;;0.17;56.59;100420.66;7793033;32;37105;-77
2024/01/11 16:11:33;;;;;;;33.45;20.33;;;;;;;-0.25;58.28;100428.38;7792494;32;40211;-77
2024/01/11 16:15:50;;;;;;;31.40;16.17;;;;;;;-0.54;59.41;100421.16;7792967;32;40960;-77
2024/01/11 16:20:07;;;;;;;33.42;19.42;;;;;;;-0.16;58.19;100429.09;7792883;32;38818;-76
2024/01/11 16:24:23;;;;;;;37.90;19.98;;;;;;;-0.35;58.23;100416.28;7792751;32;37908;-77
2024/01/11 16:28:40;;;;;;;47.25;24.42;;;;;;;-0.04;57.76;100414.22;7792842;32;38971;-77
2024/01/11 16:32:57;;;;;;;42.05;22.85;;;;;;;-0.88;60.48;100410.94;7792695;32;40891;-77
2024/01/11 16:37:15;;;;;;;51.55;24.48;;;;;;;-0.58;59.17;100411.84;7792648;32;37742;-77
2024/01/11 16:41:32;;;;;;;40.95;21.30;;;;;;;-0.82;60.26;100408.38;7792783;32;36254;-77
2024/01/11 16:45:49;;;;;;;47.65;23.75;;;;;;;-0.85;60.49;100407.91;7792905;32;39343;-77
2024/01/11 16:50:06;;;;;;;46.30;22.25;;;;;;;-0.68;60.25;100403.25;7792383;32;40968;-77
2024/01/11 16:54:22;;;;;;;48.17;23.25;;;;;;;-0.77;60.33;100389.94;7792442;32;38791;-77
2024/01/11 16:58:38;;;;;;;43.53;22.92;;;;;;;-1.02;60.06;100389.34;7792391;32;37689;-78
2024/01/11 17:02:55;;;;;;;48.40;21.92;;;;;;;-0.59;58.70;100367.31;7778403;32;39278;-77
2024/01/11 17:07:11;;;;;;;50.72;23.83;;;;;;;-0.41;58.20;100370.44;7792241;32;40782;-77
2024/01/11 17:11:28;;;;;;;38.67;22.20;;;;;;;0.02;57.31;100361.72;7792254;32;37784;-77
2024/01/11 17:15:45;;;;;;;47.58;23.77;;;;;;;-0.33;58.08;100360.66;7792369;32;37810;-76
2024/01/11 17:20:01;;;;;;;45.28;23.27;;;;;;;-0.62;58.26;100352.47;7792219;32;39952;-77
2024/01/11 17:24:18;;;;;;;48.80;25.80;;;;;;;-0.06;57.47;100353.78;7790898;32;39705;-77
2024/01/11 17:28:34;;;;;;;44.35;22.30;;;;;;;-0.42;58.24;100351.88;7792039;32;38839;-77
2024/01/11 17:32:52;;;;;;;45.42;23.87;;;;;;;-0.68;57.80;100349.69;7792079;32;38011;-77
2024/01/11 17:37:09;;;;;;;45.10;25.20;;;;;;;-1.06;59.50;100350.56;7792045;32;39187;-77
2024/01/11 17:41:26;;;;;;;45.22;23.62;;;;;;;-0.81;59.48;100336.91;7791951;32;39692;-77
2024/01/11 17:45:43;;;;;;;44.17;22.42;;;;;;;-0.35;57.61;100335.91;7783994;32;38055;-78
2024/01/11 17:49:59;;;;;;;78.12;35.97;;;;;;;-0.68;58.54;100328.25;7761753;32;36973;-75
2024/01/11 17:54:15;;;;;;;43.42;21.45;;;;;;;-0.85;58.81;100328.44;7765986;32;37675;-76
2024/01/11 17:58:32;;;;;;;40.97;22.90;;;;;;;-0.03;56.77;100321.25;7789205;32;40911;-77
2024/01/11 18:02:48;;;;;;;31.15;18.42;;;;;;;-0.87;58.32;100306.38;7765358;32;37884;-76
2024/01/11 18:07:04;;;;;;;42.47;21.25;;;;;;;-0.33;56.92;100312.44;7764507;32;37233;-76
2024/01/11 18:11:21;;;;;;;43.65;21.35;;;;;;;-0.46;57.34;100310.44;7768716;32;39319;-84
2024/01/11 18:15:37;;;;;;;43.13;22.00;;;;;;;-0.22;57.02;100298.56;7779671;32;40343;-85
2024/01/11 18:19:53;;;;;;;45.92;22.70;;;;;;;-0.18;56.76;100310.53;7764405;32;37715;-86
2024/01/11 18:24:10;;;;;;;40.25;21.83;;;;;;;-0.16;56.21;100305.81;7765148;32;37956;-85
2024/01/11 18:28:26;;;;;;;38.83;21.95;;;;;;;-0.26;56.73;100291.87;7791607;32;39374;-86
2024/01/11 18:32:42;;;;;;;45.72;22.33;;;;;;;-0.92;58.10;100295.38;7780254;32;40908;-86
2024/01/11 18:36:58;;;;;;;43.55;22.13;;;;;;;-0.69;58.62;100291.78;7777157;32;38803;-87
2024/01/11 18:41:16;;;;;;;39.75;22.40;;;;;;;-0.70;58.46;100284.78;7790612;32;38016;-86
2024/01/11 18:45:33;;;;;;;40.70;21.20;;;;;;;-0.79;58.44;100290.22;7773148;32;38277;-86
2024/01/11 18:49:49;;;;;;;44.78;22.80;;;;;;;-0.31;57.17;100262.16;7763421;32;40551;-85
2024/01/11 18:54:06;;;;;;;45.15;23.62;;;;;;;-0.97;59.55;100265.66;7763133;32;38549;-85
2024/01/11 18:58:22;;;;;;;46.33;22.58;;;;;;;-0.82;58.72;100260.31;7763436;32;37995;-84
2024/01/11 19:02:38;;;;;;;42.15;20.80;;;;;;;-0.20;56.83;100253.63;7763395;32;39958;-86
2024/01/11 19:06:55;;;;;;;35.65;14.07;;;;;;;-0.16;56.83;100260.25;7763662;32;39908;-85
2024/01/11 19:11:12;;;;;;;33.28;18.17;;;;;;;-0.47;57.72;100258.69;7762908;32;37848;-85
2024/01/11 19:15:30;;;;;;;40.65;21.05;;;;;;;-0.57;58.47;100263.50;7763027;32;37861;-86
2024/01/11 19:19:46;;;;;;;40.30;21.12;;;;;;;-0.89;58.88;100265.56;7762860;32;39201;-86
2024/01/11 19:24:03;;;;;;;38.15;20.80;;;;;;;-1.10;59.66;100273.50;7762556;32;40012;-85
2024/01/11 19:28:20;;;;;;;31.12;19.30;;;;;;;-0.56;57.80;100265.16;7769410;32;37953;-85
2024/01/11 19:32:36;;;;;;;41.78;21.50;;;;;;;-0.94;58.07;100265.28;7789517;32;37940;-86